Terminal Aerodrome Forecast
Issued by NWS Upton, NY

Home | Current Version | Previous Version | Text Only | Print | Product List | Glossary On
Versions: 1 2 3 4 5 6 7 8 9 10 11 12 13 14 15 16 17 18 19 20 21 22 23 24
000
FTUS41 KOKX 161100
TAFISP
TAF
KISP 161122Z 1612/1712 VRB02KT P6SM FEW030 SCT040 BKN150
     FM161300 VRB03KT P6SM VCSH FEW030 BKN040 OVC100
      TEMPO 1613/1614 -SHRA
     FM161600 24007KT P6SM BKN050 BKN100
     FM162100 26007KT P6SM SCT050 SCT150
     FM170200 34007KT P6SM FEW050 SCT250
     FM170500 35005KT P6SM SKC=

USA.gov is the U.S. government's official web portal to all federal, state and local government web resources and services.